KYIP/YIP METAR and TAF weather

Enter ICAO airport designator
Station Type Date Time Source
KYIP METAR 2019/09/20 19:53 UTC NOAA

KYIP 201953Z 20005KT 10SM FEW048 29/18 A3012 RMK AO2 SLP194 T02940178


Station Type Date Time Source
KYIP Decoded METAR 2019/09/20 19:53 UTC NOAA

WILLOW RUN AIRPORT, MI, United States (KYIP) 42-14N 083-32W 215M
Sep 20, 2019 - 03:53 PM EDT / 2019.09.20 1953 UTC
Wind: from the SSW (200 degrees) at 6 MPH (5 KT):0
Visibility: 10 mile(s):0
Sky conditions: mostly clear
Temperature: 84.9 F (29.4 C)
Dew Point: 64.0 F (17.8 C)
Relative Humidity: 49%
Pressure (altimeter): 30.12 in. Hg (1019 hPa)
ob: KYIP 201953Z 20005KT 10SM FEW048 29/18 A3012 RMK AO2 SLP194 T02940178
cycle: 20

Station Type Date Time Source
KYIP TAF 2019/09/20 18:22 UTC NOAA

TAF KYIP 201720Z 2018/2118 16004KT P6SM SCT050 SCT200
FM202200 14005KT P6SM SCT150
FM210900 19003KT 5SM BR BKN150
FM211400 20008KT P6SM SCT045 BKN100

Example: see airport list